sensor_id;sensor_type;location;lat;lon;timestamp;P1;durP1;ratioP1;P2;durP2;ratioP2
7029;SDS011;3556;53.500;10.176;2023-11-21T00:01:58;16.23;;;8.20;;
7029;SDS011;3556;53.500;10.176;2023-11-21T00:04:24;13.97;;;7.60;;
7029;SDS011;3556;53.500;10.176;2023-11-21T00:06:50;17.20;;;7.87;;
7029;SDS011;3556;53.500;10.176;2023-11-21T00:09:16;15.83;;;7.80;;
7029;SDS011;3556;53.500;10.176;2023-11-21T00:11:42;12.80;;;7.50;;
7029;SDS011;3556;53.500;10.176;2023-11-21T00:14:09;15.67;;;7.50;;
7029;SDS011;3556;53.500;10.176;2023-11-21T00:16:35;13.50;;;7.60;;
7029;SDS011;3556;53.500;10.176;2023-11-21T00:19:01;19.93;;;7.73;;
7029;SDS011;3556;53.500;10.176;2023-11-21T00:21:27;13.83;;;7.57;;
7029;SDS011;3556;53.500;10.176;2023-11-21T00:23:52;21.10;;;7.97;;
7029;SDS011;3556;53.500;10.176;2023-11-21T00:26:18;19.47;;;9.20;;
7029;SDS011;3556;53.500;10.176;2023-11-21T00:28:43;19.27;;;9.80;;
7029;SDS011;3556;53.500;10.176;2023-11-21T00:31:09;31.30;;;10.10;;
7029;SDS011;3556;53.500;10.176;2023-11-21T00:33:35;25.67;;;12.40;;
7029;SDS011;3556;53.500;10.176;2023-11-21T00:36:00;29.63;;;12.70;;
7029;SDS011;3556;53.500;10.176;2023-11-21T00:38:26;23.57;;;10.83;;
7029;SDS011;3556;53.500;10.176;2023-11-21T00:40:52;22.77;;;10.90;;
7029;SDS011;3556;53.500;10.176;2023-11-21T00:43:21;23.67;;;10.67;;
7029;SDS011;3556;53.500;10.176;2023-11-21T00:45:47;22.97;;;9.07;;
7029;SDS011;3556;53.500;10.176;2023-11-21T00:48:14;17.80;;;9.30;;
7029;SDS011;3556;53.500;10.176;2023-11-21T00:50:39;18.10;;;8.87;;
7029;SDS011;3556;53.500;10.176;2023-11-21T00:53:05;18.90;;;9.43;;
7029;SDS011;3556;53.500;10.176;2023-11-21T00:55:32;20.17;;;8.73;;
7029;SDS011;3556;53.500;10.176;2023-11-21T00:57:58;21.87;;;9.70;;
7029;SDS011;3556;53.500;10.176;2023-11-21T01:00:24;19.67;;;10.20;;
7029;SDS011;3556;53.500;10.176;2023-11-21T01:02:50;18.97;;;8.90;;
7029;SDS011;3556;53.500;10.176;2023-11-21T01:05:16;30.33;;;9.50;;
7029;SDS011;3556;53.500;10.176;2023-11-21T01:07:42;15.90;;;9.33;;
7029;SDS011;3556;53.500;10.176;2023-11-21T01:10:08;22.80;;;10.20;;
7029;SDS011;3556;53.500;10.176;2023-11-21T01:12:35;20.00;;;10.50;;
7029;SDS011;3556;53.500;10.176;2023-11-21T01:15:02;22.90;;;11.20;;
7029;SDS011;3556;53.500;10.176;2023-11-21T01:17:29;27.87;;;10.87;;
7029;SDS011;3556;53.500;10.176;2023-11-21T01:19:54;19.17;;;9.60;;
7029;SDS011;3556;53.500;10.176;2023-11-21T01:22:21;23.47;;;11.03;;
7029;SDS011;3556;53.500;10.176;2023-11-21T01:24:50;18.60;;;10.10;;
7029;SDS011;3556;53.500;10.176;2023-11-21T01:27:19;23.60;;;10.20;;
7029;SDS011;3556;53.500;10.176;2023-11-21T01:29:45;22.97;;;10.77;;
7029;SDS011;3556;53.500;10.176;2023-11-21T01:32:10;22.70;;;10.70;;
7029;SDS011;3556;53.500;10.176;2023-11-21T01:34:36;24.33;;;10.40;;
7029;SDS011;3556;53.500;10.176;2023-11-21T01:37:02;15.53;;;8.80;;
7029;SDS011;3556;53.500;10.176;2023-11-21T01:39:30;21.87;;;10.00;;
7029;SDS011;3556;53.500;10.176;2023-11-21T01:41:56;20.60;;;9.70;;
7029;SDS011;3556;53.500;10.176;2023-11-21T01:44:26;12.27;;;7.53;;
7029;SDS011;3556;53.500;10.176;2023-11-21T01:46:51;15.50;;;8.77;;
7029;SDS011;3556;53.500;10.176;2023-11-21T01:49:17;17.77;;;8.47;;
7029;SDS011;3556;53.500;10.176;2023-11-21T01:51:46;14.20;;;8.27;;
7029;SDS011;3556;53.500;10.176;2023-11-21T01:54:15;12.40;;;7.10;;
7029;SDS011;3556;53.500;10.176;2023-11-21T01:56:42;16.13;;;8.03;;
7029;SDS011;3556;53.500;10.176;2023-11-21T01:59:12;14.33;;;7.07;;
7029;SDS011;3556;53.500;10.176;2023-11-21T02:01:42;12.23;;;6.97;;
7029;SDS011;3556;53.500;10.176;2023-11-21T02:04:08;12.33;;;6.93;;
7029;SDS011;3556;53.500;10.176;2023-11-21T02:06:34;11.80;;;6.53;;
7029;SDS011;3556;53.500;10.176;2023-11-21T02:09:00;12.43;;;7.03;;
7029;SDS011;3556;53.500;10.176;2023-11-21T02:11:26;9.30;;;6.30;;
7029;SDS011;3556;53.500;10.176;2023-11-21T02:13:52;9.63;;;6.50;;
7029;SDS011;3556;53.500;10.176;2023-11-21T02:16:19;15.30;;;7.23;;
7029;SDS011;3556;53.500;10.176;2023-11-21T02:18:46;13.40;;;5.93;;
7029;SDS011;3556;53.500;10.176;2023-11-21T02:21:13;16.10;;;6.60;;
7029;SDS011;3556;53.500;10.176;2023-11-21T02:23:39;10.03;;;6.47;;
7029;SDS011;3556;53.500;10.176;2023-11-21T02:26:09;9.70;;;6.17;;
7029;SDS011;3556;53.500;10.176;2023-11-21T02:28:35;9.73;;;5.80;;
7029;SDS011;3556;53.500;10.176;2023-11-21T02:31:01;9.03;;;6.37;;
7029;SDS011;3556;53.500;10.176;2023-11-21T02:33:29;9.90;;;6.17;;
7029;SDS011;3556;53.500;10.176;2023-11-21T02:35:58;13.90;;;6.60;;
7029;SDS011;3556;53.500;10.176;2023-11-21T02:38:24;10.80;;;6.23;;
7029;SDS011;3556;53.500;10.176;2023-11-21T02:40:50;10.33;;;6.40;;
7029;SDS011;3556;53.500;10.176;2023-11-21T02:43:16;10.27;;;6.50;;
7029;SDS011;3556;53.500;10.176;2023-11-21T02:45:41;11.33;;;6.37;;
7029;SDS011;3556;53.500;10.176;2023-11-21T02:48:07;14.50;;;6.47;;
7029;SDS011;3556;53.500;10.176;2023-11-21T02:50:33;13.47;;;6.57;;
7029;SDS011;3556;53.500;10.176;2023-11-21T02:53:00;11.17;;;6.70;;
7029;SDS011;3556;53.500;10.176;2023-11-21T02:55:26;11.03;;;6.80;;
7029;SDS011;3556;53.500;10.176;2023-11-21T02:57:52;10.73;;;6.33;;
7029;SDS011;3556;53.500;10.176;2023-11-21T03:00:18;13.87;;;6.63;;
7029;SDS011;3556;53.500;10.176;2023-11-21T03:02:44;16.97;;;7.33;;
7029;SDS011;3556;53.500;10.176;2023-11-21T03:05:12;11.77;;;7.07;;
7029;SDS011;3556;53.500;10.176;2023-11-21T03:07:38;13.33;;;6.93;;
7029;SDS011;3556;53.500;10.176;2023-11-21T03:10:05;16.50;;;7.30;;
7029;SDS011;3556;53.500;10.176;2023-11-21T03:12:31;15.53;;;7.60;;
7029;SDS011;3556;53.500;10.176;2023-11-21T03:14:57;14.50;;;6.70;;
7029;SDS011;3556;53.500;10.176;2023-11-21T03:17:23;10.13;;;6.33;;
7029;SDS011;3556;53.500;10.176;2023-11-21T03:19:49;16.60;;;7.80;;
7029;SDS011;3556;53.500;10.176;2023-11-21T03:22:15;10.67;;;6.67;;
7029;SDS011;3556;53.500;10.176;2023-11-21T03:24:40;13.30;;;7.20;;
7029;SDS011;3556;53.500;10.176;2023-11-21T03:27:06;13.73;;;7.50;;
7029;SDS011;3556;53.500;10.176;2023-11-21T03:29:31;12.57;;;6.93;;
7029;SDS011;3556;53.500;10.176;2023-11-21T03:31:57;15.30;;;7.70;;
7029;SDS011;3556;53.500;10.176;2023-11-21T03:34:23;14.77;;;7.90;;
7029;SDS011;3556;53.500;10.176;2023-11-21T03:36:53;12.23;;;7.43;;
7029;SDS011;3556;53.500;10.176;2023-11-21T03:39:19;12.50;;;7.23;;
7029;SDS011;3556;53.500;10.176;2023-11-21T03:41:46;11.40;;;7.23;;
7029;SDS011;3556;53.500;10.176;2023-11-21T03:44:12;12.03;;;6.73;;
7029;SDS011;3556;53.500;10.176;2023-11-21T03:46:38;15.03;;;7.40;;
7029;SDS011;3556;53.500;10.176;2023-11-21T03:49:03;11.50;;;6.63;;
7029;SDS011;3556;53.500;10.176;2023-11-21T03:51:29;10.67;;;6.40;;
7029;SDS011;3556;53.500;10.176;2023-11-21T03:53:54;11.63;;;6.87;;
7029;SDS011;3556;53.500;10.176;2023-11-21T03:56:20;17.00;;;7.50;;
7029;SDS011;3556;53.500;10.176;2023-11-21T03:58:49;14.83;;;7.27;;
7029;SDS011;3556;53.500;10.176;2023-11-21T04:01:23;12.30;;;6.43;;
7029;SDS011;3556;53.500;10.176;2023-11-21T04:03:49;11.60;;;6.93;;
7029;SDS011;3556;53.500;10.176;2023-11-21T04:06:16;11.37;;;6.90;;
7029;SDS011;3556;53.500;10.176;2023-11-21T04:08:45;11.23;;;6.80;;
7029;SDS011;3556;53.500;10.176;2023-11-21T04:11:11;13.97;;;7.80;;
7029;SDS011;3556;53.500;10.176;2023-11-21T04:13:40;13.17;;;7.60;;
7029;SDS011;3556;53.500;10.176;2023-11-21T04:16:07;12.27;;;7.00;;
7029;SDS011;3556;53.500;10.176;2023-11-21T04:18:34;13.53;;;7.00;;
7029;SDS011;3556;53.500;10.176;2023-11-21T04:21:01;11.40;;;7.07;;
7029;SDS011;3556;53.500;10.176;2023-11-21T04:23:28;11.43;;;7.03;;
7029;SDS011;3556;53.500;10.176;2023-11-21T04:25:55;12.77;;;7.50;;
7029;SDS011;3556;53.500;10.176;2023-11-21T04:28:22;15.63;;;7.83;;
7029;SDS011;3556;53.500;10.176;2023-11-21T04:30:48;14.00;;;7.50;;
7029;SDS011;3556;53.500;10.176;2023-11-21T04:33:13;14.70;;;7.97;;
7029;SDS011;3556;53.500;10.176;2023-11-21T04:35:39;16.10;;;8.20;;
7029;SDS011;3556;53.500;10.176;2023-11-21T04:38:04;14.80;;;8.60;;
7029;SDS011;3556;53.500;10.176;2023-11-21T04:40:30;13.07;;;8.10;;
7029;SDS011;3556;53.500;10.176;2023-11-21T04:42:55;12.57;;;7.53;;
7029;SDS011;3556;53.500;10.176;2023-11-21T04:45:22;12.53;;;7.50;;
7029;SDS011;3556;53.500;10.176;2023-11-21T04:47:48;14.63;;;8.03;;
7029;SDS011;3556;53.500;10.176;2023-11-21T04:50:14;17.50;;;8.50;;
7029;SDS011;3556;53.500;10.176;2023-11-21T04:52:39;14.97;;;8.37;;
7029;SDS011;3556;53.500;10.176;2023-11-21T04:55:05;16.97;;;8.67;;
7029;SDS011;3556;53.500;10.176;2023-11-21T04:57:34;14.53;;;8.63;;
7029;SDS011;3556;53.500;10.176;2023-11-21T05:00:00;14.50;;;8.13;;
7029;SDS011;3556;53.500;10.176;2023-11-21T05:02:30;15.13;;;8.40;;
7029;SDS011;3556;53.500;10.176;2023-11-21T05:05:03;14.93;;;8.33;;
7029;SDS011;3556;53.500;10.176;2023-11-21T05:07:30;18.43;;;8.00;;
7029;SDS011;3556;53.500;10.176;2023-11-21T05:09:57;16.17;;;8.03;;
7029;SDS011;3556;53.500;10.176;2023-11-21T05:12:23;13.50;;;8.00;;
7029;SDS011;3556;53.500;10.176;2023-11-21T05:14:50;13.50;;;7.70;;
7029;SDS011;3556;53.500;10.176;2023-11-21T05:17:16;15.60;;;7.60;;
7029;SDS011;3556;53.500;10.176;2023-11-21T05:19:41;13.53;;;7.87;;
7029;SDS011;3556;53.500;10.176;2023-11-21T05:22:08;13.60;;;7.50;;
7029;SDS011;3556;53.500;10.176;2023-11-21T05:24:33;13.23;;;8.00;;
7029;SDS011;3556;53.500;10.176;2023-11-21T05:27:00;12.40;;;7.23;;
7029;SDS011;3556;53.500;10.176;2023-11-21T05:29:25;16.40;;;9.23;;
7029;SDS011;3556;53.500;10.176;2023-11-21T05:31:52;14.60;;;8.20;;
7029;SDS011;3556;53.500;10.176;2023-11-21T05:34:18;14.77;;;7.50;;
7029;SDS011;3556;53.500;10.176;2023-11-21T05:36:45;14.13;;;8.67;;
7029;SDS011;3556;53.500;10.176;2023-11-21T05:39:11;14.67;;;8.80;;
7029;SDS011;3556;53.500;10.176;2023-11-21T05:41:37;14.30;;;8.53;;
7029;SDS011;3556;53.500;10.176;2023-11-21T05:44:02;15.13;;;8.70;;
7029;SDS011;3556;53.500;10.176;2023-11-21T05:46:28;13.70;;;8.70;;
7029;SDS011;3556;53.500;10.176;2023-11-21T05:48:54;16.60;;;9.00;;
7029;SDS011;3556;53.500;10.176;2023-11-21T05:51:19;19.67;;;8.90;;
7029;SDS011;3556;53.500;10.176;2023-11-21T05:53:45;15.20;;;9.00;;
7029;SDS011;3556;53.500;10.176;2023-11-21T05:56:11;14.87;;;8.67;;
7029;SDS011;3556;53.500;10.176;2023-11-21T05:58:38;19.03;;;9.27;;
7029;SDS011;3556;53.500;10.176;2023-11-21T06:01:05;16.00;;;8.80;;
7029;SDS011;3556;53.500;10.176;2023-11-21T06:03:34;18.50;;;8.90;;
7029;SDS011;3556;53.500;10.176;2023-11-21T06:06:00;18.07;;;9.80;;
7029;SDS011;3556;53.500;10.176;2023-11-21T06:08:25;19.67;;;10.50;;
7029;SDS011;3556;53.500;10.176;2023-11-21T06:10:51;18.70;;;9.80;;
7029;SDS011;3556;53.500;10.176;2023-11-21T06:13:17;13.83;;;8.93;;
7029;SDS011;3556;53.500;10.176;2023-11-21T06:15:49;16.80;;;9.70;;
7029;SDS011;3556;53.500;10.176;2023-11-21T06:18:15;19.40;;;9.70;;
7029;SDS011;3556;53.500;10.176;2023-11-21T06:20:40;19.07;;;9.73;;
7029;SDS011;3556;53.500;10.176;2023-11-21T06:23:06;17.20;;;9.03;;
7029;SDS011;3556;53.500;10.176;2023-11-21T06:25:32;18.63;;;9.57;;
7029;SDS011;3556;53.500;10.176;2023-11-21T06:28:01;18.77;;;9.73;;
7029;SDS011;3556;53.500;10.176;2023-11-21T06:30:27;18.13;;;9.40;;
7029;SDS011;3556;53.500;10.176;2023-11-21T06:32:53;17.20;;;10.10;;
7029;SDS011;3556;53.500;10.176;2023-11-21T06:35:20;18.27;;;9.60;;
7029;SDS011;3556;53.500;10.176;2023-11-21T06:37:45;15.27;;;9.40;;
7029;SDS011;3556;53.500;10.176;2023-11-21T06:40:14;21.97;;;9.87;;
7029;SDS011;3556;53.500;10.176;2023-11-21T06:42:40;18.60;;;10.17;;
7029;SDS011;3556;53.500;10.176;2023-11-21T06:45:06;20.63;;;9.40;;
7029;SDS011;3556;53.500;10.176;2023-11-21T06:47:32;16.27;;;8.80;;
7029;SDS011;3556;53.500;10.176;2023-11-21T06:49:58;17.33;;;8.80;;
7029;SDS011;3556;53.500;10.176;2023-11-21T06:52:24;17.00;;;9.07;;
7029;SDS011;3556;53.500;10.176;2023-11-21T06:54:50;15.47;;;9.63;;
7029;SDS011;3556;53.500;10.176;2023-11-21T06:57:16;16.53;;;8.83;;
7029;SDS011;3556;53.500;10.176;2023-11-21T06:59:42;17.70;;;9.93;;
7029;SDS011;3556;53.500;10.176;2023-11-21T07:02:07;17.77;;;9.33;;
7029;SDS011;3556;53.500;10.176;2023-11-21T07:04:34;18.70;;;9.53;;
7029;SDS011;3556;53.500;10.176;2023-11-21T07:07:01;16.00;;;9.80;;
7029;SDS011;3556;53.500;10.176;2023-11-21T07:09:29;14.73;;;9.17;;
7029;SDS011;3556;53.500;10.176;2023-11-21T07:11:56;18.77;;;10.27;;
7029;SDS011;3556;53.500;10.176;2023-11-21T07:14:22;18.20;;;10.00;;
7029;SDS011;3556;53.500;10.176;2023-11-21T07:16:47;18.33;;;9.47;;
7029;SDS011;3556;53.500;10.176;2023-11-21T07:19:13;17.30;;;9.90;;
7029;SDS011;3556;53.500;10.176;2023-11-21T07:21:39;16.77;;;9.57;;
7029;SDS011;3556;53.500;10.176;2023-11-21T07:24:06;19.07;;;9.97;;
7029;SDS011;3556;53.500;10.176;2023-11-21T07:26:33;18.00;;;9.70;;
7029;SDS011;3556;53.500;10.176;2023-11-21T07:29:00;20.20;;;10.47;;
7029;SDS011;3556;53.500;10.176;2023-11-21T07:31:27;21.80;;;11.40;;
7029;SDS011;3556;53.500;10.176;2023-11-21T07:33:54;19.60;;;10.87;;
7029;SDS011;3556;53.500;10.176;2023-11-21T07:36:22;18.73;;;10.00;;
7029;SDS011;3556;53.500;10.176;2023-11-21T07:38:48;18.00;;;10.30;;
7029;SDS011;3556;53.500;10.176;2023-11-21T07:41:14;20.13;;;10.70;;
7029;SDS011;3556;53.500;10.176;2023-11-21T07:43:40;20.90;;;10.77;;
7029;SDS011;3556;53.500;10.176;2023-11-21T07:46:06;21.23;;;10.40;;
7029;SDS011;3556;53.500;10.176;2023-11-21T07:48:33;17.10;;;10.10;;
7029;SDS011;3556;53.500;10.176;2023-11-21T07:51:00;19.80;;;10.57;;
7029;SDS011;3556;53.500;10.176;2023-11-21T07:53:28;20.93;;;10.90;;
7029;SDS011;3556;53.500;10.176;2023-11-21T07:55:55;19.53;;;11.23;;
7029;SDS011;3556;53.500;10.176;2023-11-21T07:58:21;19.30;;;10.20;;
7029;SDS011;3556;53.500;10.176;2023-11-21T08:00:47;20.03;;;10.83;;
7029;SDS011;3556;53.500;10.176;2023-11-21T08:03:14;17.00;;;9.93;;
7029;SDS011;3556;53.500;10.176;2023-11-21T08:05:40;21.60;;;11.00;;
7029;SDS011;3556;53.500;10.176;2023-11-21T08:08:05;18.03;;;9.70;;
7029;SDS011;3556;53.500;10.176;2023-11-21T08:10:31;19.77;;;9.97;;
7029;SDS011;3556;53.500;10.176;2023-11-21T08:12:57;18.50;;;9.87;;
7029;SDS011;3556;53.500;10.176;2023-11-21T08:15:23;15.40;;;8.50;;
7029;SDS011;3556;53.500;10.176;2023-11-21T08:17:49;29.47;;;9.60;;
7029;SDS011;3556;53.500;10.176;2023-11-21T08:20:14;16.27;;;9.57;;
7029;SDS011;3556;53.500;10.176;2023-11-21T08:22:42;19.90;;;9.17;;
7029;SDS011;3556;53.500;10.176;2023-11-21T08:25:08;15.27;;;8.83;;
7029;SDS011;3556;53.500;10.176;2023-11-21T08:27:34;16.53;;;9.00;;
7029;SDS011;3556;53.500;10.176;2023-11-21T08:30:00;16.23;;;8.87;;
7029;SDS011;3556;53.500;10.176;2023-11-21T08:32:27;14.93;;;8.60;;
7029;SDS011;3556;53.500;10.176;2023-11-21T08:34:55;18.27;;;9.67;;
7029;SDS011;3556;53.500;10.176;2023-11-21T08:37:20;18.90;;;9.10;;
7029;SDS011;3556;53.500;10.176;2023-11-21T08:39:47;14.63;;;8.20;;
7029;SDS011;3556;53.500;10.176;2023-11-21T08:42:13;22.87;;;9.50;;
7029;SDS011;3556;53.500;10.176;2023-11-21T08:44:39;13.30;;;8.10;;
7029;SDS011;3556;53.500;10.176;2023-11-21T08:47:05;12.47;;;7.53;;
7029;SDS011;3556;53.500;10.176;2023-11-21T08:49:31;11.73;;;6.43;;
7029;SDS011;3556;53.500;10.176;2023-11-21T08:51:57;11.07;;;6.70;;
7029;SDS011;3556;53.500;10.176;2023-11-21T08:54:26;8.80;;;6.37;;
7029;SDS011;3556;53.500;10.176;2023-11-21T08:56:52;12.70;;;6.20;;
7029;SDS011;3556;53.500;10.176;2023-11-21T08:59:18;9.17;;;6.10;;
7029;SDS011;3556;53.500;10.176;2023-11-21T09:01:45;9.30;;;6.13;;
7029;SDS011;3556;53.500;10.176;2023-11-21T09:04:11;9.30;;;5.70;;
7029;SDS011;3556;53.500;10.176;2023-11-21T09:06:37;10.97;;;5.67;;
7029;SDS011;3556;53.500;10.176;2023-11-21T09:09:03;12.60;;;4.93;;
7029;SDS011;3556;53.500;10.176;2023-11-21T09:11:30;10.83;;;5.70;;
7029;SDS011;3556;53.500;10.176;2023-11-21T09:14:00;10.00;;;5.73;;
7029;SDS011;3556;53.500;10.176;2023-11-21T09:16:26;7.63;;;5.17;;
7029;SDS011;3556;53.500;10.176;2023-11-21T09:18:52;8.43;;;5.40;;
7029;SDS011;3556;53.500;10.176;2023-11-21T09:21:17;9.80;;;5.93;;
7029;SDS011;3556;53.500;10.176;2023-11-21T09:23:46;7.10;;;5.50;;
7029;SDS011;3556;53.500;10.176;2023-11-21T09:26:13;7.27;;;4.83;;
7029;SDS011;3556;53.500;10.176;2023-11-21T09:28:41;6.87;;;5.07;;
7029;SDS011;3556;53.500;10.176;2023-11-21T09:31:12;10.13;;;5.30;;
7029;SDS011;3556;53.500;10.176;2023-11-21T09:33:42;7.57;;;5.13;;
7029;SDS011;3556;53.500;10.176;2023-11-21T09:36:12;8.43;;;4.67;;
7029;SDS011;3556;53.500;10.176;2023-11-21T09:38:41;5.93;;;4.37;;
7029;SDS011;3556;53.500;10.176;2023-11-21T09:41:08;4.93;;;4.03;;
7029;SDS011;3556;53.500;10.176;2023-11-21T09:43:46;7.20;;;4.10;;
7029;SDS011;3556;53.500;10.176;2023-11-21T09:46:12;5.10;;;3.97;;
7029;SDS011;3556;53.500;10.176;2023-11-21T09:48:44;5.27;;;4.20;;
7029;SDS011;3556;53.500;10.176;2023-11-21T09:51:15;9.90;;;4.90;;
7029;SDS011;3556;53.500;10.176;2023-11-21T09:53:44;6.40;;;4.10;;
7029;SDS011;3556;53.500;10.176;2023-11-21T09:56:14;5.10;;;4.40;;
7029;SDS011;3556;53.500;10.176;2023-11-21T09:58:44;5.03;;;4.20;;
7029;SDS011;3556;53.500;10.176;2023-11-21T10:01:10;5.23;;;4.03;;
7029;SDS011;3556;53.500;10.176;2023-11-21T10:03:38;4.40;;;3.60;;
7029;SDS011;3556;53.500;10.176;2023-11-21T10:06:04;7.20;;;4.37;;
7029;SDS011;3556;53.500;10.176;2023-11-21T10:08:31;3.90;;;3.50;;
7029;SDS011;3556;53.500;10.176;2023-11-21T10:10:58;3.93;;;3.53;;
7029;SDS011;3556;53.500;10.176;2023-11-21T10:13:24;6.20;;;4.17;;
7029;SDS011;3556;53.500;10.176;2023-11-21T10:15:52;5.60;;;4.70;;
7029;SDS011;3556;53.500;10.176;2023-11-21T10:18:18;4.67;;;4.17;;
7029;SDS011;3556;53.500;10.176;2023-11-21T10:20:44;5.60;;;4.63;;
7029;SDS011;3556;53.500;10.176;2023-11-21T10:23:17;5.53;;;4.70;;
7029;SDS011;3556;53.500;10.176;2023-11-21T10:25:47;4.77;;;4.23;;
7029;SDS011;3556;53.500;10.176;2023-11-21T10:28:14;6.37;;;4.80;;
7029;SDS011;3556;53.500;10.176;2023-11-21T10:30:40;5.20;;;4.63;;
7029;SDS011;3556;53.500;10.176;2023-11-21T10:33:07;9.73;;;5.10;;
7029;SDS011;3556;53.500;10.176;2023-11-21T10:36:06;5.37;;;3.93;;
7029;SDS011;3556;53.500;10.176;2023-11-21T10:38:26;7.13;;;4.27;;
7029;SDS011;3556;53.500;10.176;2023-11-21T10:40:54;4.60;;;3.77;;
7029;SDS011;3556;53.500;10.176;2023-11-21T10:43:20;10.17;;;4.00;;
7029;SDS011;3556;53.500;10.176;2023-11-21T10:45:50;4.47;;;3.70;;
7029;SDS011;3556;53.500;10.176;2023-11-21T10:48:16;4.50;;;3.20;;
7029;SDS011;3556;53.500;10.176;2023-11-21T10:50:42;4.20;;;3.90;;
7029;SDS011;3556;53.500;10.176;2023-11-21T10:53:11;7.43;;;3.30;;
7029;SDS011;3556;53.500;10.176;2023-11-21T10:55:37;4.00;;;3.50;;
7029;SDS011;3556;53.500;10.176;2023-11-21T10:58:03;3.63;;;3.33;;
7029;SDS011;3556;53.500;10.176;2023-11-21T11:00:31;7.17;;;3.33;;
7029;SDS011;3556;53.500;10.176;2023-11-21T11:02:58;5.93;;;3.87;;
7029;SDS011;3556;53.500;10.176;2023-11-21T11:05:25;5.00;;;4.20;;
7029;SDS011;3556;53.500;10.176;2023-11-21T11:07:58;4.10;;;3.60;;
7029;SDS011;3556;53.500;10.176;2023-11-21T11:10:28;4.20;;;3.47;;
7029;SDS011;3556;53.500;10.176;2023-11-21T11:12:57;5.53;;;4.23;;
7029;SDS011;3556;53.500;10.176;2023-11-21T11:15:24;5.10;;;4.00;;
7029;SDS011;3556;53.500;10.176;2023-11-21T11:17:50;4.53;;;4.13;;
7029;SDS011;3556;53.500;10.176;2023-11-21T11:20:17;5.93;;;4.80;;
7029;SDS011;3556;53.500;10.176;2023-11-21T11:25:53;7.93;;;4.17;;
7029;SDS011;3556;53.500;10.176;2023-11-21T11:31:40;5.73;;;4.50;;
7029;SDS011;3556;53.500;10.176;2023-11-21T11:34:30;5.37;;;4.13;;
7029;SDS011;3556;53.500;10.176;2023-11-21T11:37:00;6.10;;;4.10;;
7029;SDS011;3556;53.500;10.176;2023-11-21T11:39:35;6.00;;;4.30;;
7029;SDS011;3556;53.500;10.176;2023-11-21T11:42:03;6.80;;;4.20;;
7029;SDS011;3556;53.500;10.176;2023-11-21T11:47:13;4.23;;;3.80;;
7029;SDS011;3556;53.500;10.176;2023-11-21T11:50:03;4.03;;;3.67;;
7029;SDS011;3556;53.500;10.176;2023-11-21T11:55:05;10.23;;;4.00;;
7029;SDS011;3556;53.500;10.176;2023-11-21T11:57:33;6.17;;;4.13;;
7029;SDS011;3556;53.500;10.176;2023-11-21T12:00:21;4.27;;;3.47;;
7029;SDS011;3556;53.500;10.176;2023-11-21T12:02:52;5.77;;;4.10;;
7029;SDS011;3556;53.500;10.176;2023-11-21T12:05:22;4.03;;;3.57;;
7029;SDS011;3556;53.500;10.176;2023-11-21T12:10:19;5.30;;;3.90;;
7029;SDS011;3556;53.500;10.176;2023-11-21T12:12:54;4.37;;;3.90;;
7029;SDS011;3556;53.500;10.176;2023-11-21T12:15:24;6.20;;;4.60;;
7029;SDS011;3556;53.500;10.176;2023-11-21T12:17:56;4.33;;;3.83;;
7029;SDS011;3556;53.500;10.176;2023-11-21T12:20:25;3.90;;;3.50;;
7029;SDS011;3556;53.500;10.176;2023-11-21T12:22:52;4.40;;;3.90;;
7029;SDS011;3556;53.500;10.176;2023-11-21T12:25:22;5.10;;;3.90;;
7029;SDS011;3556;53.500;10.176;2023-11-21T12:27:50;4.40;;;3.50;;
7029;SDS011;3556;53.500;10.176;2023-11-21T12:30:18;5.63;;;4.00;;
7029;SDS011;3556;53.500;10.176;2023-11-21T12:32:49;5.10;;;4.13;;
7029;SDS011;3556;53.500;10.176;2023-11-21T12:35:21;7.53;;;4.20;;
7029;SDS011;3556;53.500;10.176;2023-11-21T12:37:49;4.30;;;3.87;;
7029;SDS011;3556;53.500;10.176;2023-11-21T12:40:15;10.37;;;4.97;;
7029;SDS011;3556;53.500;10.176;2023-11-21T12:42:42;7.77;;;4.40;;
7029;SDS011;3556;53.500;10.176;2023-11-21T12:45:21;11.87;;;4.13;;
7029;SDS011;3556;53.500;10.176;2023-11-21T12:47:51;5.40;;;3.70;;
7029;SDS011;3556;53.500;10.176;2023-11-21T12:50:33;7.07;;;4.03;;
7029;SDS011;3556;53.500;10.176;2023-11-21T12:53:02;5.03;;;3.83;;
7029;SDS011;3556;53.500;10.176;2023-11-21T12:55:30;4.20;;;3.80;;
7029;SDS011;3556;53.500;10.176;2023-11-21T12:58:03;4.80;;;4.30;;
7029;SDS011;3556;53.500;10.176;2023-11-21T13:00:37;6.13;;;4.17;;
7029;SDS011;3556;53.500;10.176;2023-11-21T13:03:06;4.33;;;3.90;;
7029;SDS011;3556;53.500;10.176;2023-11-21T13:05:36;4.70;;;3.80;;
7029;SDS011;3556;53.500;10.176;2023-11-21T13:08:09;4.80;;;4.27;;
7029;SDS011;3556;53.500;10.176;2023-11-21T13:10:38;6.00;;;4.20;;
7029;SDS011;3556;53.500;10.176;2023-11-21T13:13:07;5.50;;;4.10;;
7029;SDS011;3556;53.500;10.176;2023-11-21T13:15:35;5.00;;;4.10;;
7029;SDS011;3556;53.500;10.176;2023-11-21T13:18:05;4.77;;;4.10;;
7029;SDS011;3556;53.500;10.176;2023-11-21T13:20:32;4.77;;;4.00;;
7029;SDS011;3556;53.500;10.176;2023-11-21T13:22:58;4.00;;;3.60;;
7029;SDS011;3556;53.500;10.176;2023-11-21T13:25:24;12.33;;;4.40;;
7029;SDS011;3556;53.500;10.176;2023-11-21T13:27:56;5.40;;;4.20;;
7029;SDS011;3556;53.500;10.176;2023-11-21T13:30:24;7.10;;;4.27;;
7029;SDS011;3556;53.500;10.176;2023-11-21T13:32:59;4.30;;;3.90;;
7029;SDS011;3556;53.500;10.176;2023-11-21T13:35:30;5.60;;;4.00;;
7029;SDS011;3556;53.500;10.176;2023-11-21T13:38:03;4.77;;;3.40;;
7029;SDS011;3556;53.500;10.176;2023-11-21T13:40:31;3.90;;;3.50;;
7029;SDS011;3556;53.500;10.176;2023-11-21T13:42:59;10.20;;;3.83;;
7029;SDS011;3556;53.500;10.176;2023-11-21T13:45:29;5.67;;;3.47;;
7029;SDS011;3556;53.500;10.176;2023-11-21T13:47:55;4.17;;;3.70;;
7029;SDS011;3556;53.500;10.176;2023-11-21T13:50:23;4.80;;;3.80;;
7029;SDS011;3556;53.500;10.176;2023-11-21T13:52:54;5.80;;;3.60;;
7029;SDS011;3556;53.500;10.176;2023-11-21T13:55:19;5.23;;;3.67;;
7029;SDS011;3556;53.500;10.176;2023-11-21T13:57:46;4.23;;;3.70;;
7029;SDS011;3556;53.500;10.176;2023-11-21T14:00:16;8.07;;;3.87;;
7029;SDS011;3556;53.500;10.176;2023-11-21T14:03:01;4.93;;;3.90;;
7029;SDS011;3556;53.500;10.176;2023-11-21T14:05:29;6.93;;;3.80;;
7029;SDS011;3556;53.500;10.176;2023-11-21T14:07:56;5.47;;;4.13;;
7029;SDS011;3556;53.500;10.176;2023-11-21T14:10:28;7.47;;;4.60;;
7029;SDS011;3556;53.500;10.176;2023-11-21T14:13:02;5.50;;;4.27;;
7029;SDS011;3556;53.500;10.176;2023-11-21T14:15:30;6.20;;;4.50;;
7029;SDS011;3556;53.500;10.176;2023-11-21T14:17:58;4.93;;;3.83;;
7029;SDS011;3556;53.500;10.176;2023-11-21T14:20:25;5.30;;;3.83;;
7029;SDS011;3556;53.500;10.176;2023-11-21T14:22:50;4.97;;;4.20;;
7029;SDS011;3556;53.500;10.176;2023-11-21T14:25:17;5.00;;;3.63;;
7029;SDS011;3556;53.500;10.176;2023-11-21T14:27:43;4.20;;;3.77;;
7029;SDS011;3556;53.500;10.176;2023-11-21T14:30:08;8.00;;;3.80;;
7029;SDS011;3556;53.500;10.176;2023-11-21T14:32:37;4.73;;;3.67;;
7029;SDS011;3556;53.500;10.176;2023-11-21T14:35:03;4.77;;;3.73;;
7029;SDS011;3556;53.500;10.176;2023-11-21T14:37:30;16.87;;;4.00;;
7029;SDS011;3556;53.500;10.176;2023-11-21T14:39:55;6.13;;;4.20;;
7029;SDS011;3556;53.500;10.176;2023-11-21T14:42:22;5.07;;;3.30;;
7029;SDS011;3556;53.500;10.176;2023-11-21T14:44:50;4.30;;;3.60;;
7029;SDS011;3556;53.500;10.176;2023-11-21T14:47:17;5.30;;;3.80;;
7029;SDS011;3556;53.500;10.176;2023-11-21T14:49:49;6.63;;;4.20;;
7029;SDS011;3556;53.500;10.176;2023-11-21T14:52:21;6.60;;;3.67;;
7029;SDS011;3556;53.500;10.176;2023-11-21T14:55:03;5.37;;;3.60;;
7029;SDS011;3556;53.500;10.176;2023-11-21T14:57:56;4.23;;;3.30;;
7029;SDS011;3556;53.500;10.176;2023-11-21T15:00:27;5.20;;;3.20;;
7029;SDS011;3556;53.500;10.176;2023-11-21T15:02:58;3.40;;;2.93;;
7029;SDS011;3556;53.500;10.176;2023-11-21T15:05:24;6.57;;;3.83;;
7029;SDS011;3556;53.500;10.176;2023-11-21T15:07:52;5.40;;;4.03;;